createdAt,value
2019-03-18T00:03:20.454Z,6.40
2019-03-18T00:08:24.358Z,5.00
2019-03-18T00:13:31.650Z,4.83
2019-03-18T00:18:36.467Z,4.00
2019-03-18T00:23:41.589Z,9.17
2019-03-18T00:28:50.567Z,4.70
2019-03-18T00:33:54.638Z,4.17
2019-03-18T00:38:58.717Z,2.50
2019-03-18T00:44:03.255Z,3.00
2019-03-18T00:49:06.947Z,4.00
2019-03-18T00:54:10.628Z,3.00
2019-03-18T00:59:17.999Z,4.00
2019-03-18T01:04:25.955Z,3.00
2019-03-18T01:09:29.816Z,4.00
2019-03-18T01:14:33.196Z,5.00
2019-03-18T01:19:36.432Z,4.00
2019-03-18T01:24:42.851Z,4.00
2019-03-18T01:29:46.872Z,4.00
2019-03-18T01:34:51.326Z,3.00
2019-03-18T01:39:55.430Z,6.00
2019-03-18T01:44:58.943Z,7.00
2019-03-18T01:50:02.550Z,6.33
2019-03-18T01:55:09.242Z,3.20
2019-03-18T02:00:16.008Z,3.20
2019-03-18T02:05:20.895Z,4.67
2019-03-18T02:10:27.685Z,6.80
2019-03-18T02:15:31.364Z,6.00
2019-03-18T02:20:36.187Z,6.83
2019-03-18T02:25:40.808Z,8.00
2019-03-18T02:30:46.101Z,10.00
2019-03-18T02:35:53.267Z,20.33
2019-03-18T02:40:57.560Z,6.00
2019-03-18T02:46:10.211Z,6.00
2019-03-18T02:51:08.689Z,6.00
2019-03-18T02:56:13.465Z,6.00
2019-03-18T03:01:20.704Z,5.00
2019-03-18T03:06:28.669Z,5.40
2019-03-18T03:11:34.472Z,5.00
2019-03-18T03:16:40.231Z,9.57
2019-03-18T03:21:46.577Z,8.14
2019-03-18T03:26:52.992Z,10.00
2019-03-18T03:31:59.131Z,10.43
2019-03-18T03:37:02.760Z,12.25
2019-03-18T03:42:07.964Z,10.00
2019-03-18T03:47:14.283Z,10.71
2019-03-18T03:52:18.325Z,9.50
2019-03-18T03:57:22.891Z,5.00
2019-03-18T04:02:27.804Z,6.17
2019-03-18T04:07:31.575Z,6.83
2019-03-18T04:12:35.323Z,6.83
2019-03-18T04:17:41.638Z,10.43
2019-03-18T04:22:47.343Z,7.00
2019-03-18T04:27:53.643Z,10.00
2019-03-18T04:32:59.029Z,17.00
2019-03-18T04:38:05.426Z,10.29
2019-03-18T04:43:08.899Z,11.00
2019-03-18T04:48:17.758Z,11.00
2019-03-18T04:53:24.038Z,9.00
2019-03-18T04:58:30.323Z,9.00
2019-03-18T05:03:36.697Z,8.57
2019-03-18T05:08:39.643Z,12.00
2019-03-18T05:13:42.625Z,12.00
2019-03-18T05:18:48.139Z,8.00
2019-03-18T05:23:53.339Z,11.00
2019-03-18T05:28:56.856Z,20.00
2019-03-18T05:34:00.474Z,20.00
2019-03-18T05:39:04.874Z,12.00
2019-03-18T05:44:09.897Z,12.29
2019-03-18T05:49:13.419Z,13.75
2019-03-18T05:54:22.631Z,22.44
2019-03-18T05:59:27.135Z,9.17
2019-03-18T06:04:30.857Z,20.00
2019-03-18T06:09:34.907Z,10.00
2019-03-18T06:14:43.710Z,13.45
2019-03-18T06:19:52.127Z,10.71
2019-03-18T06:24:55.559Z,4.80
2019-03-18T06:30:04.645Z,17.25
2019-03-18T06:35:10.915Z,11.71
2019-03-18T06:40:15.920Z,17.29
2019-03-18T06:45:19.143Z,21.00
2019-03-18T06:50:25.653Z,9.71
2019-03-18T06:55:31.266Z,12.29
2019-03-18T07:00:36.212Z,8.00
2019-03-18T07:05:42.039Z,12.00
2019-03-18T07:10:48.231Z,9.71
2019-03-18T07:15:52.868Z,12.33
2019-03-18T07:20:58.928Z,25.12
2019-03-18T07:26:02.391Z,20.75
2019-03-18T07:31:08.354Z,18.14
2019-03-18T07:36:17.116Z,11.82
2019-03-18T07:41:21.539Z,10.86
2019-03-18T07:46:26.907Z,22.29
2019-03-18T07:51:36.368Z,10.36
2019-03-18T07:56:40.151Z,8.67
2019-03-18T08:01:47.348Z,20.88
2019-03-18T08:06:53.321Z,26.37
2019-03-18T08:11:59.840Z,12.50
2019-03-18T08:17:07.417Z,14.75
2019-03-18T08:22:16.334Z,8.33
2019-03-18T08:27:21.495Z,17.33
2019-03-18T08:32:28.064Z,11.29
2019-03-18T08:37:32.637Z,22.33
2019-03-18T08:42:38.188Z,11.83
2019-03-18T08:47:43.594Z,21.43
2019-03-18T08:52:52.573Z,15.56
2019-03-18T08:57:58.603Z,12.86
2019-03-18T09:03:02.853Z,10.40
2019-03-18T09:08:07.915Z,14.00
2019-03-18T09:13:14.158Z,15.29
2019-03-18T09:18:22.855Z,15.63
2019-03-18T09:23:27.793Z,19.00
2019-03-18T09:28:33.953Z,13.71
2019-03-18T09:33:42.353Z,8.00
2019-03-18T09:38:49.504Z,9.57
2019-03-18T09:43:55.855Z,12.17
2019-03-18T09:49:02.240Z,12.67
2019-03-18T09:54:05.869Z,7.40
2019-03-18T09:59:11.879Z,10.71
2019-03-18T10:04:16.556Z,7.00
2019-03-18T10:09:20.900Z,8.33
2019-03-18T10:14:27.402Z,14.43
2019-03-18T10:19:33.651Z,13.67
2019-03-18T10:24:37.396Z,6.60
2019-03-18T10:29:41.033Z,7.33
2019-03-18T10:34:47.374Z,18.43
2019-03-18T10:39:53.664Z,8.50
2019-03-18T10:45:00.939Z,12.29
2019-03-18T10:50:05.666Z,20.00
2019-03-18T10:55:11.829Z,23.12
2019-03-18T11:00:17.188Z,8.83
2019-03-18T11:05:21.923Z,9.00
2019-03-18T11:10:29.925Z,12.86
2019-03-18T11:15:34.423Z,15.86
2019-03-18T11:20:38.078Z,8.50
2019-03-18T11:25:41.962Z,12.00
2019-03-18T11:30:46.656Z,9.71
2019-03-18T11:35:55.607Z,16.25
2019-03-18T11:41:01.111Z,10.00
2019-03-18T11:46:05.731Z,11.29
2019-03-18T11:51:12.213Z,9.50
2019-03-18T11:56:20.272Z,13.71
2019-03-18T12:01:27.259Z,22.62
2019-03-18T12:06:31.820Z,14.00
2019-03-18T12:11:38.007Z,9.71
2019-03-18T12:16:41.498Z,16.25
2019-03-18T12:21:50.199Z,20.50
2019-03-18T12:26:57.431Z,11.00
2019-03-18T12:32:07.187Z,14.58
2019-03-18T12:37:12.620Z,10.00
2019-03-18T12:42:16.097Z,24.25
2019-03-18T12:47:19.073Z,15.00
2019-03-18T12:52:23.711Z,12.33
2019-03-18T12:57:28.219Z,12.67
2019-03-18T13:02:35.243Z,13.25
2019-03-18T13:07:42.552Z,9.17
2019-03-18T13:12:47.259Z,13.86
2019-03-18T13:17:53.538Z,13.29
2019-03-18T13:22:57.269Z,9.00
2019-03-18T13:28:04.130Z,18.25
2019-03-18T13:33:10.027Z,12.00
2019-03-18T13:38:16.009Z,14.00
2019-03-18T13:43:20.560Z,9.00
2019-03-18T13:48:24.906Z,8.83
2019-03-18T13:53:29.529Z,7.33
2019-03-18T13:58:32.979Z,12.00
2019-03-18T14:03:38.563Z,23.00
2019-03-18T14:08:45.702Z,9.50
2019-03-18T14:13:48.747Z,9.00
2019-03-18T14:18:53.966Z,18.29
2019-03-18T14:23:59.290Z,13.43
2019-03-18T14:29:03.862Z,12.43
2019-03-18T14:34:08.916Z,12.25
2019-03-18T14:39:13.546Z,13.29
2019-03-18T14:44:21.796Z,16.29
2019-03-18T14:49:25.816Z,15.00
2019-03-18T14:54:30.491Z,12.71
2019-03-18T14:59:35.139Z,12.50
2019-03-18T15:04:42.828Z,14.38
2019-03-18T15:09:47.399Z,8.43
2019-03-18T15:14:51.111Z,12.25
2019-03-18T15:19:57.324Z,10.00
2019-03-18T15:25:06.192Z,21.87
2019-03-18T15:30:12.807Z,11.86
2019-03-18T15:35:18.483Z,17.43
2019-03-18T15:40:28.063Z,10.50
2019-03-18T15:45:33.004Z,12.00
2019-03-18T15:50:36.436Z,12.00
2019-03-18T15:55:41.799Z,14.00
2019-03-18T16:00:45.346Z,24.50
2019-03-18T16:05:50.767Z,20.00
2019-03-18T16:10:53.632Z,13.67
2019-03-18T16:15:57.219Z,15.25
2019-03-18T16:21:05.486Z,9.57
2019-03-18T16:26:13.233Z,16.00
2019-03-18T16:31:20.127Z,17.62
2019-03-18T16:36:24.743Z,12.33
2019-03-18T16:41:30.570Z,30.37
2019-03-18T16:46:40.812Z,28.73
2019-03-18T16:51:47.765Z,13.10
2019-03-18T16:57:01.391Z,16.11
2019-03-18T17:02:06.236Z,12.00
2019-03-18T17:07:16.045Z,34.50
2019-03-18T17:12:22.955Z,11.71
2019-03-18T17:17:29.385Z,12.00
2019-03-18T17:22:48.155Z,10.00
2019-03-18T17:27:51.523Z,25.17
2019-03-18T17:38:15.764Z,19.45
2019-03-18T17:43:21.770Z,19.50
2019-03-18T17:48:33.729Z,13.56
2019-03-18T17:53:47.203Z,19.06
2019-03-18T17:58:53.722Z,20.62
2019-03-18T18:03:58.959Z,19.14
2019-03-18T18:09:05.476Z,23.00
2019-03-18T18:14:09.413Z,17.33
2019-03-18T18:19:13.874Z,21.00
2019-03-18T18:24:17.683Z,20.33
2019-03-18T18:29:23.219Z,18.86
2019-03-18T18:34:27.491Z,20.75
2019-03-18T18:39:36.343Z,22.75
2019-03-18T18:44:40.156Z,24.75
2019-03-18T18:49:43.874Z,20.67
2019-03-18T18:54:49.610Z,21.62
2019-03-18T18:59:54.431Z,28.00
2019-03-18T19:04:58.760Z,17.50
2019-03-18T19:10:05.582Z,24.75
2019-03-18T19:15:12.112Z,24.00
2019-03-18T19:20:20.107Z,27.87
2019-03-18T19:25:31.825Z,22.10
2019-03-18T19:30:40.602Z,28.50
2019-03-18T19:35:48.878Z,22.25
2019-03-18T19:40:58.867Z,22.11
2019-03-18T19:46:05.153Z,21.25
2019-03-18T19:51:17.669Z,19.69
2019-03-18T19:56:21.327Z,23.00
2019-03-18T20:01:28.377Z,22.00
2019-03-18T20:07:26.510Z,26.00
2019-03-18T20:14:08.055Z,23.50
2019-03-18T20:19:40.686Z,37.19
2019-03-18T20:25:20.856Z,22.17
2019-03-18T20:30:57.895Z,23.91
2019-03-18T20:36:19.607Z,23.43
2019-03-18T20:41:24.021Z,25.00
2019-03-18T20:46:42.170Z,24.44
2019-03-18T20:51:47.513Z,24.00
2019-03-18T20:56:51.950Z,24.00
2019-03-18T21:01:55.683Z,33.33
2019-03-18T21:07:03.550Z,29.00
2019-03-18T21:12:15.490Z,29.00
2019-03-18T21:17:22.567Z,23.00
2019-03-18T21:23:13.104Z,26.24
2019-03-18T21:28:18.730Z,24.25
2019-03-18T21:33:27.928Z,29.63
2019-03-18T21:38:37.346Z,27.89
2019-03-18T21:43:44.312Z,28.62
2019-03-18T21:48:47.913Z,26.00
2019-03-18T21:53:52.071Z,25.60
2019-03-18T21:59:00.352Z,30.88
2019-03-18T22:04:07.506Z,30.12
2019-03-18T22:09:11.543Z,22.67
2019-03-18T22:14:21.980Z,29.00
2019-03-18T22:19:25.943Z,25.75
2019-03-18T22:24:29.247Z,25.00
2019-03-18T22:29:34.508Z,30.50
2019-03-18T22:34:41.700Z,23.00
2019-03-18T22:39:51.412Z,22.00
2019-03-18T22:44:54.643Z,22.67
2019-03-18T22:49:58.119Z,31.33
2019-03-18T22:55:03.002Z,24.00
2019-03-18T23:00:22.245Z,28.00
2019-03-18T23:05:34.811Z,26.20
2019-03-18T23:10:42.491Z,25.67
2019-03-18T23:15:50.354Z,19.30
2019-03-18T23:20:56.402Z,22.62
2019-03-18T23:26:06.408Z,35.10
2019-03-18T23:31:17.096Z,19.40
2019-03-18T23:36:26.870Z,20.33
2019-03-18T23:41:31.520Z,22.50
2019-03-18T23:46:37.656Z,24.25
2019-03-18T23:51:46.685Z,26.11
2019-03-18T23:56:53.948Z,28.70
